Time;durP1;ratioP1;P1;durP2;ratioP2;P2;SDS_P1;SDS_P2;PMS_P1;PMS_P2;Temp;Humidity;BMP_temperature;BMP_pressure;BME280_temperature;BME280_humidity;BME280_pressure;Samples;Min_cycle;Max_cycle;Signal;HPM_P1;HPM_P2
2022/12/20 00:02:24;;;;;;;11.13;4.43;;;10.40;1.00;;;;;;5031199;28;20038;-66
2022/12/20 00:04:49;;;;;;;9.43;4.82;;;10.70;1.00;;;;;;5030722;28;20033;-66
2022/12/20 00:07:15;;;;;;;7.57;4.30;;;10.60;1.00;;;;;;5031102;28;20556;-65
2022/12/20 00:09:40;;;;;;;8.43;3.88;;;10.70;1.00;;;;;;5031559;28;20045;-66
2022/12/20 00:12:06;;;;;;;6.57;4.25;;;10.50;1.00;;;;;;5020303;28;20125;-66
2022/12/20 00:14:31;;;;;;;5.68;4.00;;;10.60;1.00;;;;;;5025878;28;20395;-66
2022/12/20 00:16:57;;;;;;;9.27;3.83;;;10.30;99.90;;;;;;5031666;28;20046;-66
2022/12/20 00:19:22;;;;;;;7.68;4.05;;;10.70;1.00;;;;;;5031449;28;20471;-66
2022/12/20 00:21:48;;;;;;;7.47;4.50;;;10.80;1.00;;;;;;5029619;28;20411;-66
2022/12/20 00:24:14;;;;;;;10.02;5.20;;;10.80;1.00;;;;;;5031738;28;20034;-66
2022/12/20 00:26:39;;;;;;;7.30;4.40;;;10.50;99.90;;;;;;5035189;28;20132;-66
2022/12/20 00:29:05;;;;;;;8.43;4.47;;;11.40;99.90;;;;;;5035097;28;20552;-66
2022/12/20 00:31:31;;;;;;;7.25;4.35;;;10.60;99.90;;;;;;5017697;28;20510;-66
2022/12/20 00:33:58;;;;;;;6.65;4.57;;;10.50;99.90;;;;;;5032650;28;20171;-66
2022/12/20 00:36:26;;;;;;;7.28;4.22;;;10.70;99.90;;;;;;5034449;28;20044;-66
2022/12/20 00:38:54;;;;;;;7.60;4.05;;;10.60;99.90;;;;;;5033163;28;20045;-66
2022/12/20 00:41:22;;;;;;;6.25;3.83;;;10.70;99.90;;;;;;5034602;28;20509;-66
2022/12/20 00:43:48;;;;;;;7.20;4.00;;;10.60;99.90;;;;;;5031497;28;20072;-66
2022/12/20 00:46:15;;;;;;;7.32;4.38;;;10.60;99.90;;;;;;5033913;28;20036;-66
2022/12/20 00:48:41;;;;;;;6.30;3.97;;;10.80;99.90;;;;;;5034756;28;20491;-66
2022/12/20 00:51:13;;;;;;;11.50;4.45;;;10.90;86.50;;;;;;5034105;28;20036;-66
2022/12/20 00:53:39;;;;;;;7.13;4.40;;;10.90;46.90;;;;;;5030608;28;20439;-66
2022/12/20 00:56:06;;;;;;;6.82;4.20;;;10.80;10.10;;;;;;5033883;28;20056;-66
2022/12/20 00:58:33;;;;;;;6.20;4.28;;;10.60;1.00;;;;;;5032293;28;20084;-66
2022/12/20 01:00:59;;;;;;;9.15;4.28;;;10.70;1.00;;;;;;5035028;28;20037;-66
2022/12/20 01:03:25;;;;;;;9.27;4.30;;;10.70;1.00;;;;;;5033235;28;20044;-66
2022/12/20 01:05:59;;;;;;;7.03;4.20;;;10.50;1.00;;;;;;5034649;28;20266;-66
2022/12/20 01:08:30;;;;;;;8.05;3.88;;;10.40;1.00;;;;;;5034480;28;20041;-66
2022/12/20 01:11:05;;;;;;;6.15;3.50;;;10.50;1.00;;;;;;5033007;28;20521;-66
2022/12/20 01:13:32;;;;;;;8.80;3.60;;;10.60;1.00;;;;;;5021601;28;20530;-65
2022/12/20 01:16:15;;;;;;;7.20;3.85;;;10.40;1.00;;;;;;5014937;28;20446;-65
2022/12/20 01:18:41;;;;;;;8.02;4.28;;;10.50;1.00;;;;;;5029436;28;20415;-66
2022/12/20 01:21:09;;;;;;;6.47;3.97;;;10.40;1.00;;;;;;5034299;28;20037;-66
2022/12/20 01:23:35;;;;;;;4.90;3.92;;;10.50;1.00;;;;;;5016390;28;20406;-66
2022/12/20 01:26:03;;;;;;;8.43;4.55;;;10.60;1.00;;;;;;5029797;28;20037;-66
2022/12/20 01:28:30;;;;;;;8.00;3.80;;;10.50;99.90;;;;;;5032647;28;20495;-66
2022/12/20 01:30:56;;;;;;;7.45;4.45;;;10.50;99.90;;;;;;5032947;28;20041;-66
2022/12/20 01:33:22;;;;;;;7.85;4.40;;;10.50;99.90;;;;;;5033772;28;20176;-66
2022/12/20 01:35:59;;;;;;;15.48;3.97;;;10.30;99.90;;;;;;5032311;28;20519;-66
2022/12/20 01:38:25;;;;;;;7.25;4.40;;;10.30;99.90;;;;;;5033907;28;20491;-66
2022/12/20 01:40:51;;;;;;;8.98;5.00;;;10.30;99.90;;;;;;5033436;28;20121;-65
2022/12/20 01:43:18;;;;;;;7.13;3.78;;;10.10;99.90;;;;;;5032335;28;20037;-66
2022/12/20 01:45:44;;;;;;;11.13;4.80;;;10.30;99.90;;;;;;5030306;28;20068;-66
2022/12/20 01:48:11;;;;;;;7.43;3.83;;;10.10;99.90;;;;;;5028648;28;20037;-66
2022/12/20 01:50:37;;;;;;;7.20;4.07;;;10.30;99.90;;;;;;5033692;28;20487;-66
2022/12/20 01:53:04;;;;;;;9.40;4.25;;;10.30;99.90;;;;;;5033508;28;20491;-66
2022/12/20 01:55:31;;;;;;;5.32;3.88;;;10.20;99.90;;;;;;5011365;28;20045;-66
2022/12/20 01:58:07;;;;;;;8.57;4.30;;;10.10;99.90;;;;;;5032722;28;20037;-66
2022/12/20 02:00:33;;;;;;;5.97;4.00;;;9.90;99.90;;;;;;5020695;28;20052;-66
2022/12/20 02:03:02;;;;;;;11.98;5.60;;;10.10;99.90;;;;;;5022731;28;20037;-65
2022/12/20 02:05:33;;;;;;;9.38;4.68;;;10.10;99.90;;;;;;5030570;28;20036;-65
2022/12/20 02:07:58;;;;;;;5.63;3.97;;;10.00;99.90;;;;;;5032649;28;20045;-66
2022/12/20 02:10:38;;;;;;;7.55;4.22;;;9.90;99.90;;;;;;5033390;28;20032;-66
2022/12/20 02:13:15;;;;;;;6.78;4.30;;;10.10;99.90;;;;;;5032420;28;20092;-66
2022/12/20 02:15:56;;;;;;;10.23;4.75;;;10.00;99.90;;;;;;5020144;28;20041;-66
2022/12/20 02:19:01;;;;;;;7.18;4.68;;;10.10;1.00;;;;;;5031807;28;20037;-66
2022/12/20 02:21:40;;;;;;;9.88;4.60;;;9.70;1.00;;;;;;5033046;28;20558;-66
2022/12/20 02:24:30;;;;;;;9.60;4.60;;;10.00;78.50;;;;;;5031689;28;20096;-66
2022/12/20 02:27:11;;;;;;;6.53;3.95;;;10.00;99.90;;;;;;5024355;28;20121;-66
2022/12/20 02:29:42;;;;;;;12.35;4.30;;;10.10;99.90;;;;;;5033483;28;20120;-66
2022/12/20 02:32:15;;;;;;;10.10;4.43;;;9.70;1.00;;;;;;5026182;28;20095;-66
2022/12/20 02:34:41;;;;;;;8.40;4.97;;;10.00;99.90;;;;;;5027598;28;20092;-66
2022/12/20 02:37:07;;;;;;;9.63;5.45;;;10.10;99.90;;;;;;5027650;28;20041;-66
2022/12/20 02:39:36;;;;;;;7.68;4.95;;;10.10;1.00;;;;;;5025858;28;20037;-65
2022/12/20 02:42:19;;;;;;;9.25;4.38;;;9.90;1.00;;;;;;5031286;28;20513;-66
2022/12/20 02:47:57;;;;;;;8.57;5.03;;;10.20;99.90;;;;;;5025340;28;20421;-65
2022/12/20 02:50:31;;;;;;;6.38;4.28;;;9.70;1.00;;;;;;5023727;28;20033;-65
2022/12/20 02:52:58;;;;;;;7.18;3.80;;;10.20;59.00;;;;;;5027332;28;20537;-65
2022/12/20 02:55:37;;;;;;;7.13;3.97;;;9.80;99.90;;;;;;5028598;28;20030;-65
2022/12/20 02:58:10;;;;;;;8.90;4.88;;;10.30;99.90;;;;;;5022655;28;20528;-65
2022/12/20 03:00:41;;;;;;;7.20;4.35;;;10.40;1.00;;;;;;5023088;28;20033;-65
2022/12/20 03:03:24;;;;;;;6.53;4.47;;;10.00;99.90;;;;;;5027386;28;20048;-65
2022/12/20 03:05:53;;;;;;;10.45;4.50;;;10.40;1.00;;;;;;5026738;28;20053;-65
2022/12/20 03:08:20;;;;;;;9.90;4.50;;;9.90;99.90;;;;;;5029994;28;20399;-66
2022/12/20 03:10:46;;;;;;;6.40;4.10;;;10.50;1.00;;;;;;5029674;28;20074;-66
2022/12/20 03:13:12;;;;;;;6.00;4.13;;;10.40;1.00;;;;;;5027613;28;20060;-65
2022/12/20 03:15:38;;;;;;;7.18;4.32;;;10.20;6.70;;;;;;5028994;28;20038;-66
2022/12/20 03:18:03;;;;;;;6.72;4.13;;;10.10;88.20;;;;;;5029838;28;20044;-66
2022/12/20 03:20:29;;;;;;;7.00;3.80;;;10.20;1.00;;;;;;5027191;28;20037;-65
2022/12/20 03:22:55;;;;;;;7.80;4.93;;;10.20;99.90;;;;;;5031130;28;20041;-65
2022/12/20 03:25:20;;;;;;;9.63;4.47;;;10.00;99.90;;;;;;4999387;28;20503;-65
2022/12/20 03:27:46;;;;;;;6.95;4.18;;;10.70;1.00;;;;;;5030125;28;20061;-65
2022/12/20 03:30:13;;;;;;;8.00;3.88;;;10.70;91.60;;;;;;5030029;28;20029;-65
2022/12/20 03:32:38;;;;;;;8.30;3.72;;;10.30;99.90;;;;;;5029096;28;20530;-66
2022/12/20 03:35:04;;;;;;;8.23;4.05;;;10.70;1.00;;;;;;5021201;28;20164;-65
2022/12/20 03:37:30;;;;;;;7.82;4.35;;;10.60;72.60;;;;;;5018450;28;20112;-65
2022/12/20 03:39:55;;;;;;;11.02;4.63;;;10.30;99.90;;;;;;5028630;28;20036;-66
2022/12/20 03:42:21;;;;;;;5.38;3.65;;;10.80;1.00;;;;;;5027468;28;20556;-66
2022/12/20 03:44:47;;;;;;;6.47;3.97;;;10.50;99.90;;;;;;5031286;28;20415;-66
2022/12/20 03:47:12;;;;;;;5.93;3.72;;;10.90;99.90;;;;;;5020565;28;20037;-66
2022/12/20 03:49:38;;;;;;;6.82;4.55;;;10.70;1.00;;;;;;5030605;28;20033;-66
2022/12/20 03:52:04;;;;;;;5.85;3.55;;;10.40;61.00;;;;;;5031081;28;20037;-66
2022/12/20 03:54:30;;;;;;;6.20;4.00;;;10.40;99.90;;;;;;5029386;28;20041;-65
2022/12/20 03:56:55;;;;;;;7.95;3.95;;;11.00;99.90;;;;;;5029756;28;20041;-66
2022/12/20 03:59:21;;;;;;;6.82;4.47;;;11.00;61.70;;;;;;5033159;28;20037;-66
2022/12/20 04:01:46;;;;;;;8.07;4.45;;;10.90;99.90;;;;;;5032595;28;20067;-66
2022/12/20 04:04:14;;;;;;;7.65;4.20;;;10.90;56.00;;;;;;5031428;28;20624;-65
2022/12/20 04:06:40;;;;;;;5.28;3.67;;;10.50;99.90;;;;;;5032943;28;20049;-65
2022/12/20 04:09:05;;;;;;;10.25;4.30;;;10.70;99.90;;;;;;5033698;28;20391;-66
2022/12/20 04:11:31;;;;;;;8.07;4.13;;;10.90;99.90;;;;;;5029505;28;20056;-65
2022/12/20 04:13:56;;;;;;;10.57;3.70;;;10.80;99.90;;;;;;5031926;28;20041;-65
2022/12/20 04:16:25;;;;;;;6.72;3.67;;;10.70;99.90;;;;;;5029502;28;20550;-66
2022/12/20 04:18:51;;;;;;;5.53;3.70;;;11.10;33.30;;;;;;5032882;28;20029;-65
2022/12/20 04:21:26;;;;;;;7.85;3.72;;;10.90;99.90;;;;;;5029949;28;20502;-65
2022/12/20 04:23:51;;;;;;;4.88;3.53;;;11.00;99.90;;;;;;5023244;28;20069;-65
2022/12/20 04:26:17;;;;;;;5.57;3.47;;;11.00;97.80;;;;;;5030648;28;20037;-65
2022/12/20 04:28:43;;;;;;;7.72;4.47;;;11.40;33.70;;;;;;5033060;28;20059;-65
2022/12/20 04:31:09;;;;;;;4.90;3.85;;;11.40;1.00;;;;;;5035041;28;20116;-65
2022/12/20 04:33:35;;;;;;;6.20;3.97;;;10.90;99.90;;;;;;5033511;28;20037;-66
2022/12/20 04:36:01;;;;;;;7.40;3.67;;;11.00;99.90;;;;;;5032837;28;20045;-65
2022/12/20 04:38:26;;;;;;;8.00;3.78;;;11.10;15.20;;;;;;5029192;28;20417;-65
2022/12/20 04:40:53;;;;;;;7.05;3.67;;;11.10;1.00;;;;;;5030405;28;20044;-65
2022/12/20 04:43:20;;;;;;;6.40;3.72;;;10.80;99.90;;;;;;5030316;28;20140;-65
2022/12/20 04:45:51;;;;;;;9.40;3.58;;;10.80;99.90;;;;;;5031162;28;20501;-65
2022/12/20 04:48:16;;;;;;;6.18;3.63;;;11.20;57.20;;;;;;5033430;28;20040;-66
2022/12/20 04:50:42;;;;;;;6.38;3.42;;;10.60;1.00;;;;;;5031882;28;20412;-66
2022/12/20 04:55:54;;;;;;;;;;;10.80;1.00;;;;;;5034005;28;20139;-65
2022/12/20 04:58:20;;;;;;;10.63;3.57;;;10.90;1.00;;;;;;5032123;28;20437;-65
2022/12/20 05:00:45;;;;;;;6.57;3.50;;;10.80;99.90;;;;;;5031618;28;20041;-65
2022/12/20 05:03:11;;;;;;;5.43;3.42;;;10.70;99.90;;;;;;5031971;28;20030;-65
2022/12/20 05:05:36;;;;;;;6.10;3.78;;;11.10;99.90;;;;;;5026435;28;20593;-65
2022/12/20 05:08:02;;;;;;;7.53;3.97;;;10.70;99.90;;;;;;5033803;28;20044;-65
2022/12/20 05:10:28;;;;;;;7.07;3.67;;;10.80;99.90;;;;;;5031742;28;20037;-66
2022/12/20 05:12:53;;;;;;;6.55;3.03;;;10.70;69.60;;;;;;5030386;28;20421;-66
2022/12/20 05:15:19;;;;;;;9.18;4.05;;;11.00;1.00;;;;;;5026506;28;20034;-66
2022/12/20 05:17:44;;;;;;;7.18;3.50;;;10.70;1.00;;;;;;5031242;28;20067;-66
2022/12/20 05:20:10;;;;;;;8.02;3.65;;;10.90;1.00;;;;;;5030561;28;20033;-66
2022/12/20 05:28:04;;;;;;;5.53;3.33;;;10.90;99.90;;;;;;5030807;28;20080;-65
2022/12/20 05:30:30;;;;;;;5.53;3.47;;;11.10;99.90;;;;;;5031227;28;20049;-65
2022/12/20 05:32:55;;;;;;;8.25;3.33;;;11.40;99.90;;;;;;5029876;28;20402;-65
2022/12/20 05:35:21;;;;;;;6.15;3.45;;;11.30;99.90;;;;;;5029591;28;20037;-66
2022/12/20 05:37:47;;;;;;;6.38;3.95;;;11.20;1.00;;;;;;5030744;28;20095;-66
2022/12/20 05:40:12;;;;;;;8.48;3.67;;;11.10;1.00;;;;;;5027638;28;20037;-66
2022/12/20 05:42:39;;;;;;;6.75;3.85;;;11.10;99.90;;;;;;5031048;28;21417;-66
2022/12/20 05:45:05;;;;;;;9.20;4.00;;;11.00;99.90;;;;;;5021452;28;20076;-66
2022/12/20 05:47:32;;;;;;;4.80;3.15;;;11.10;99.90;;;;;;5023367;28;20062;-66
2022/12/20 05:49:59;;;;;;;6.53;3.50;;;11.00;99.90;;;;;;5022534;28;20333;-66
2022/12/20 05:52:25;;;;;;;5.10;3.47;;;11.00;99.90;;;;;;5026000;28;20041;-65
2022/12/20 05:54:51;;;;;;;6.00;3.35;;;11.00;94.80;;;;;;5031139;28;20053;-66
2022/12/20 05:57:17;;;;;;;10.18;4.35;;;11.30;1.00;;;;;;5029191;28;20037;-66
2022/12/20 05:59:42;;;;;;;6.35;3.85;;;11.30;1.00;;;;;;5030710;28;20414;-65
2022/12/20 06:02:09;;;;;;;7.35;3.60;;;11.30;1.00;;;;;;5030997;28;20069;-65
2022/12/20 06:04:35;;;;;;;6.70;4.03;;;11.20;1.00;;;;;;5032838;28;20487;-66
2022/12/20 06:07:01;;;;;;;7.40;4.03;;;11.10;99.90;;;;;;5030449;28;20046;-66
2022/12/20 06:09:27;;;;;;;12.00;3.50;;;11.00;99.90;;;;;;5026800;28;20036;-66
2022/12/20 06:11:52;;;;;;;6.90;3.45;;;11.30;99.90;;;;;;5010795;28;20097;-66
2022/12/20 06:14:18;;;;;;;6.18;3.83;;;10.90;99.90;;;;;;5023988;28;20045;-65
2022/12/20 06:16:44;;;;;;;4.95;3.28;;;11.20;99.90;;;;;;5032288;28;20041;-65
2022/12/20 06:19:09;;;;;;;5.75;4.22;;;11.40;99.90;;;;;;5028277;28;20061;-65
2022/12/20 06:21:35;;;;;;;7.68;3.58;;;10.90;1.00;;;;;;5032507;28;20048;-65
2022/12/20 06:24:00;;;;;;;5.38;3.70;;;11.40;1.00;;;;;;5025672;28;20030;-65
2022/12/20 06:26:26;;;;;;;5.32;4.05;;;11.30;31.50;;;;;;5022717;28;20502;-65
2022/12/20 06:28:53;;;;;;;7.13;3.83;;;10.70;99.90;;;;;;5025120;28;20084;-66
2022/12/20 06:31:19;;;;;;;6.47;4.55;;;10.90;99.90;;;;;;5032208;28;20521;-65
2022/12/20 06:33:44;;;;;;;5.47;3.97;;;11.00;67.60;;;;;;5030618;28;20041;-66
2022/12/20 06:36:10;;;;;;;9.48;4.85;;;10.90;99.90;;;;;;5027670;28;20108;-66
2022/12/20 06:38:36;;;;;;;8.75;4.88;;;10.60;38.80;;;;;;5021499;28;20083;-65
2022/12/20 06:41:01;;;;;;;6.20;4.78;;;11.00;1.00;;;;;;5022412;28;20132;-65
2022/12/20 06:43:27;;;;;;;7.13;4.72;;;10.80;99.90;;;;;;5030392;28;20125;-65
2022/12/20 06:45:53;;;;;;;8.10;5.15;;;11.10;47.90;;;;;;5030569;28;20040;-65
2022/12/20 06:48:20;;;;;;;8.30;5.15;;;10.60;99.90;;;;;;5031412;28;20083;-65
2022/12/20 06:50:47;;;;;;;6.72;4.72;;;10.70;1.00;;;;;;5027572;28;20092;-65
2022/12/20 06:53:13;;;;;;;9.38;5.47;;;10.30;1.00;;;;;;5025963;28;20501;-65
2022/12/20 06:55:39;;;;;;;10.15;5.75;;;10.50;99.90;;;;;;5028950;28;20072;-65
2022/12/20 06:58:05;;;;;;;6.90;5.40;;;11.40;99.90;;;;;;5028514;28;20059;-65
2022/12/20 07:00:31;;;;;;;11.00;7.20;;;11.50;99.90;;;;;;5031339;28;20034;-65
2022/12/20 07:02:56;;;;;;;10.75;5.82;;;11.10;99.90;;;;;;5031666;28;20069;-65
2022/12/20 07:05:22;;;;;;;11.18;6.97;;;10.50;99.90;;;;;;5020885;28;20063;-65
2022/12/20 07:07:48;;;;;;;10.32;6.75;;;11.30;99.90;;;;;;5027316;28;20076;-66
2022/12/20 07:10:13;;;;;;;9.60;6.50;;;11.20;99.90;;;;;;5021838;28;20034;-67
2022/12/20 07:12:39;;;;;;;7.82;5.25;;;10.50;99.90;;;;;;5031599;28;20085;-67
2022/12/20 07:15:06;;;;;;;7.13;4.78;;;10.70;99.90;;;;;;5030082;28;20724;-66
2022/12/20 07:17:32;;;;;;;7.45;4.97;;;10.70;99.90;;;;;;5030270;28;20041;-66
2022/12/20 07:19:58;;;;;;;7.93;5.22;;;11.30;99.90;;;;;;5032090;28;20029;-65
2022/12/20 07:22:23;;;;;;;10.02;5.88;;;10.90;99.90;;;;;;5032056;28;20038;-65
2022/12/20 07:24:49;;;;;;;5.60;4.15;;;10.70;99.90;;;;;;5032612;28;20037;-65
2022/12/20 07:27:15;;;;;;;6.35;5.05;;;11.70;99.90;;;;;;5030863;28;20556;-65
2022/12/20 07:29:41;;;;;;;7.13;5.15;;;11.10;99.90;;;;;;5030979;28;20087;-65
2022/12/20 07:32:07;;;;;;;7.60;5.25;;;11.80;99.90;;;;;;5030147;28;20037;-65
2022/12/20 07:34:33;;;;;;;8.23;5.55;;;11.70;99.90;;;;;;5029348;28;20045;-65
2022/12/20 07:36:58;;;;;;;5.68;4.15;;;11.30;99.90;;;;;;5030206;28;20029;-65
2022/12/20 07:39:24;;;;;;;6.35;3.95;;;11.50;99.90;;;;;;5031240;28;20037;-66
2022/12/20 07:41:56;;;;;;;7.30;4.50;;;11.30;99.90;;;;;;5030414;28;20037;-65
2022/12/20 07:44:22;;;;;;;10.15;5.10;;;11.20;99.90;;;;;;5031091;28;20131;-65
2022/12/20 07:46:48;;;;;;;8.35;3.95;;;11.10;99.90;;;;;;5028734;28;20041;-65
2022/12/20 07:49:14;;;;;;;5.53;4.03;;;11.60;99.90;;;;;;5030264;28;20112;-65
2022/12/20 07:51:47;;;;;;;6.82;4.60;;;11.20;99.90;;;;;;5030582;28;20049;-66
2022/12/20 07:54:36;;;;;;;6.28;4.05;;;11.00;99.90;;;;;;5031009;28;20059;-66
2022/12/20 07:57:13;;;;;;;5.88;4.10;;;11.60;99.90;;;;;;5030107;28;20274;-65
2022/12/20 07:59:43;;;;;;;5.68;4.00;;;11.60;99.90;;;;;;5031633;28;20037;-65
2022/12/20 08:02:18;;;;;;;6.97;3.70;;;11.20;99.90;;;;;;5031043;28;20034;-66
2022/12/20 08:04:43;;;;;;;7.03;3.70;;;11.20;99.90;;;;;;5031870;28;20041;-66
2022/12/20 08:07:10;;;;;;;5.07;3.78;;;11.20;99.90;;;;;;5029586;28;20265;-66
2022/12/20 08:09:40;;;;;;;5.65;3.15;;;11.10;99.90;;;;;;5031260;28;20053;-66
2022/12/20 08:12:09;;;;;;;5.85;3.95;;;11.50;99.90;;;;;;5030756;28;20057;-67
2022/12/20 08:14:35;;;;;;;6.03;3.90;;;11.60;99.90;;;;;;5032000;28;20495;-67
2022/12/20 08:17:00;;;;;;;7.57;3.90;;;11.50;99.90;;;;;;5031239;28;20034;-66
2022/12/20 08:19:26;;;;;;;4.63;3.05;;;11.20;99.90;;;;;;5031485;28;20034;-66
2022/12/20 08:21:51;;;;;;;3.75;3.08;;;11.20;99.90;;;;;;5028637;28;20107;-66
2022/12/20 08:24:17;;;;;;;4.95;3.38;;;11.40;1.00;;;;;;5030493;28;20040;-66
2022/12/20 08:26:43;;;;;;;4.65;3.10;;;11.60;99.90;;;;;;5011887;28;20042;-65
2022/12/20 08:29:09;;;;;;;6.95;3.72;;;11.40;99.90;;;;;;5026958;28;20113;-66
2022/12/20 08:31:38;;;;;;;4.85;3.17;;;11.60;99.90;;;;;;5015091;28;20485;-66
2022/12/20 08:34:05;;;;;;;9.40;2.88;;;11.90;1.00;;;;;;5030056;28;20041;-66
2022/12/20 08:36:31;;;;;;;5.25;2.78;;;11.90;99.90;;;;;;5031045;28;20042;-65
2022/12/20 08:38:56;;;;;;;4.63;3.08;;;11.60;79.50;;;;;;5030913;28;20026;-66
2022/12/20 08:41:22;;;;;;;3.85;2.65;;;11.80;1.00;;;;;;5030983;28;20109;-66
2022/12/20 08:43:47;;;;;;;5.18;3.17;;;11.90;99.90;;;;;;5032577;28;20037;-66
2022/12/20 08:46:13;;;;;;;7.85;3.75;;;11.70;7.20;;;;;;5027723;28;20564;-66
2022/12/20 08:48:39;;;;;;;6.60;3.00;;;11.90;99.90;;;;;;5028416;28;20026;-66
2022/12/20 08:51:08;;;;;;;7.07;3.03;;;11.90;99.90;;;;;;5034667;28;20395;-66
2022/12/20 08:53:35;;;;;;;5.47;3.08;;;11.80;1.00;;;;;;5034826;28;20398;-66
2022/12/20 08:56:11;;;;;;;4.40;2.65;;;11.80;1.00;;;;;;5034564;28;20107;-66
2022/12/20 08:58:37;;;;;;;8.35;2.83;;;12.10;99.90;;;;;;5033381;28;20103;-66
2022/12/20 09:01:05;;;;;;;4.20;2.72;;;11.80;5.40;;;;;;5034463;28;20486;-66
2022/12/20 09:03:32;;;;;;;5.18;2.90;;;11.80;1.00;;;;;;5034709;28;20042;-66
2022/12/20 09:05:58;;;;;;;3.90;2.65;;;12.00;99.90;;;;;;5034550;28;20080;-66
2022/12/20 09:08:24;;;;;;;8.57;3.30;;;12.00;76.60;;;;;;5033854;28;20524;-66
2022/12/20 09:10:50;;;;;;;4.30;2.58;;;12.00;1.00;;;;;;5028742;28;20041;-66
2022/12/20 09:13:16;;;;;;;6.30;3.03;;;11.70;99.90;;;;;;5033396;28;20057;-66
2022/12/20 09:15:42;;;;;;;3.88;2.65;;;11.80;99.90;;;;;;5027043;28;20041;-66
2022/12/20 09:18:08;;;;;;;6.30;3.15;;;11.70;99.90;;;;;;5033597;28;20041;-66
2022/12/20 09:20:34;;;;;;;4.38;2.67;;;12.20;1.00;;;;;;5034346;28;20521;-66
2022/12/20 09:22:59;;;;;;;4.60;2.58;;;11.90;1.00;;;;;;5033036;28;20036;-66
2022/12/20 09:25:26;;;;;;;3.70;2.47;;;12.60;1.00;;;;;;5033328;28;20040;-66
2022/12/20 09:27:54;;;;;;;7.88;2.85;;;11.90;99.90;;;;;;5034088;28;20041;-66
2022/12/20 09:30:19;;;;;;;4.00;2.42;;;11.70;99.90;;;;;;5034486;28;20132;-66
2022/12/20 09:32:45;;;;;;;3.30;2.28;;;12.00;99.90;;;;;;5025553;28;20112;-66
2022/12/20 09:35:10;;;;;;;6.28;3.17;;;12.00;99.90;;;;;;5031725;28;20030;-66
2022/12/20 09:37:36;;;;;;;6.43;2.80;;;11.80;27.50;;;;;;5033770;28;20044;-66
2022/12/20 09:40:03;;;;;;;4.03;2.60;;;11.70;1.00;;;;;;5033727;28;20740;-66
2022/12/20 09:42:29;;;;;;;3.15;2.67;;;11.90;1.00;;;;;;5032854;28;20630;-66
2022/12/20 09:45:07;;;;;;;6.18;3.00;;;11.70;1.00;;;;;;5017495;28;20046;-66
2022/12/20 09:47:35;;;;;;;4.57;2.63;;;11.70;1.00;;;;;;5030136;28;20045;-66
2022/12/20 09:50:03;;;;;;;3.88;2.67;;;11.80;1.00;;;;;;5030693;28;20658;-66
2022/12/20 09:52:54;;;;;;;6.75;3.30;;;11.80;1.00;;;;;;5033259;28;21846;-66
2022/12/20 09:55:31;;;;;;;4.43;2.78;;;11.80;1.00;;;;;;5032052;28;20042;-66
2022/12/20 09:58:18;;;;;;;3.67;2.60;;;11.50;1.00;;;;;;5031472;28;20037;-66
2022/12/20 10:00:48;;;;;;;4.32;2.97;;;11.30;1.00;;;;;;5031518;28;20532;-66
2022/12/20 10:03:35;;;;;;;4.85;2.95;;;11.70;93.90;;;;;;5024372;28;20033;-66
2022/12/20 10:06:38;;;;;;;4.63;2.78;;;11.70;99.90;;;;;;5032218;28;20040;-66
2022/12/20 10:09:18;;;;;;;5.10;2.47;;;11.70;99.90;;;;;;5027118;28;20073;-66
2022/12/20 10:12:13;;;;;;;3.55;2.67;;;11.60;99.90;;;;;;5031005;28;20065;-66
2022/12/20 10:15:02;;;;;;;9.05;3.42;;;11.40;99.90;;;;;;5009526;28;20125;-66
2022/12/20 10:17:57;;;;;;;5.00;2.95;;;11.40;1.00;;;;;;5033280;28;20545;-66
2022/12/20 10:20:23;;;;;;;8.73;3.53;;;11.10;1.00;;;;;;5033676;28;20076;-66
2022/12/20 10:22:57;;;;;;;4.05;2.90;;;11.40;1.00;;;;;;5031757;28;20081;-66
2022/12/20 10:25:31;;;;;;;7.00;3.17;;;11.00;96.50;;;;;;5033097;28;20045;-66
2022/12/20 10:27:59;;;;;;;9.02;2.95;;;11.00;99.90;;;;;;5032068;28;20041;-66
2022/12/20 10:30:27;;;;;;;5.30;2.80;;;11.00;99.90;;;;;;5033487;28;20041;-66
2022/12/20 10:32:55;;;;;;;3.50;2.40;;;10.90;99.90;;;;;;5032339;28;20063;-66
2022/12/20 10:35:25;;;;;;;6.53;2.72;;;11.00;99.90;;;;;;5033100;28;20671;-66
2022/12/20 10:38:00;;;;;;;8.23;2.85;;;11.40;1.00;;;;;;5032944;28;20041;-65
2022/12/20 10:40:30;;;;;;;5.55;3.00;;;11.10;1.00;;;;;;5032606;28;20034;-65
2022/12/20 10:42:56;;;;;;;9.32;3.33;;;11.30;1.00;;;;;;5032487;28;20033;-66
2022/12/20 10:45:21;;;;;;;7.60;3.00;;;11.60;1.00;;;;;;5031662;28;20494;-66
2022/12/20 10:47:50;;;;;;;6.30;2.80;;;11.30;1.00;;;;;;5023097;28;20455;-66
2022/12/20 10:50:19;;;;;;;5.03;3.03;;;11.20;1.00;;;;;;5032857;28;20038;-66
2022/12/20 10:53:03;;;;;;;5.22;2.95;;;10.90;1.00;;;;;;5030479;28;20033;-66
2022/12/20 10:55:35;;;;;;;4.63;2.33;;;11.00;1.00;;;;;;5029383;28;20095;-66
2022/12/20 10:58:12;;;;;;;6.95;3.20;;;11.00;38.90;;;;;;5032030;28;20048;-66
2022/12/20 11:00:38;;;;;;;5.25;2.83;;;10.90;18.90;;;;;;5031541;28;20540;-66
2022/12/20 11:03:28;;;;;;;5.93;2.88;;;10.70;1.00;;;;;;5031537;28;20042;-66
2022/12/20 11:06:01;;;;;;;4.53;2.90;;;11.20;87.50;;;;;;5031764;28;20056;-66
2022/12/20 11:08:29;;;;;;;4.75;2.75;;;12.50;99.90;;;;;;5032270;28;20514;-66
2022/12/20 11:11:10;;;;;;;4.75;2.90;;;10.90;1.00;;;;;;5032016;28;20041;-66
2022/12/20 11:13:36;;;;;;;4.35;3.00;;;11.70;1.00;;;;;;5031210;28;20076;-65
2022/12/20 11:16:02;;;;;;;8.32;3.50;;;10.90;88.60;;;;;;5032333;28;20503;-65
2022/12/20 11:18:59;;;;;;;6.45;3.13;;;11.10;99.90;;;;;;5031577;28;20091;-66
2022/12/20 11:21:44;;;;;;;5.35;3.50;;;11.20;99.90;;;;;;5032289;28;20041;-66
2022/12/20 11:24:13;;;;;;;5.85;3.78;;;10.70;99.90;;;;;;4981941;28;20515;-66
2022/12/20 11:27:07;;;;;;;5.25;3.15;;;10.70;99.90;;;;;;5012293;28;20423;-66
2022/12/20 11:29:57;;;;;;;4.60;2.92;;;11.20;1.00;;;;;;5012742;28;20046;-66
2022/12/20 11:32:37;;;;;;;6.22;3.30;;;11.00;99.90;;;;;;5011647;28;20041;-66
2022/12/20 11:35:08;;;;;;;5.30;3.20;;;11.10;99.90;;;;;;5015891;28;20048;-66
2022/12/20 11:37:53;;;;;;;5.45;3.53;;;11.10;99.90;;;;;;5031357;28;20044;-65
2022/12/20 11:40:43;;;;;;;7.07;3.30;;;11.30;99.90;;;;;;5029158;28;20041;-65
2022/12/20 11:43:21;;;;;;;7.22;3.90;;;11.40;69.30;;;;;;5018057;28;20037;-65
2022/12/20 11:46:06;;;;;;;8.65;4.15;;;11.50;99.90;;;;;;5030372;28;20069;-65
2022/12/20 11:48:38;;;;;;;6.38;4.07;;;11.50;1.00;;;;;;5012420;28;20041;-65
2022/12/20 11:51:12;;;;;;;7.70;3.92;;;11.50;93.40;;;;;;5011592;28;20100;-65
2022/12/20 11:53:47;;;;;;;6.32;4.00;;;11.50;99.90;;;;;;5028083;28;20045;-65
2022/12/20 11:56:20;;;;;;;8.15;5.22;;;11.20;99.90;;;;;;5031536;28;20037;-66
2022/12/20 11:58:54;;;;;;;10.32;5.00;;;11.70;99.90;;;;;;5030054;28;20049;-66
2022/12/20 12:01:25;;;;;;;7.80;4.13;;;10.80;99.90;;;;;;5031442;28;20552;-65
2022/12/20 12:04:10;;;;;;;5.85;4.10;;;11.70;99.90;;;;;;5030515;28;20037;-67
2022/12/20 12:06:42;;;;;;;9.60;4.35;;;11.50;99.90;;;;;;5016630;28;20045;-66
2022/12/20 12:09:16;;;;;;;7.82;4.90;;;11.60;99.90;;;;;;5020876;28;20518;-66
2022/12/20 12:11:49;;;;;;;7.15;4.55;;;10.60;99.90;;;;;;5027910;28;20572;-66
2022/12/20 12:14:45;;;;;;;6.32;4.35;;;10.90;99.90;;;;;;5030111;28;20560;-66
2022/12/20 12:17:28;;;;;;;8.68;4.75;;;10.80;99.90;;;;;;5029298;28;20512;-66
2022/12/20 12:20:00;;;;;;;9.93;5.18;;;10.80;99.90;;;;;;5024745;28;20054;-66
2022/12/20 12:22:33;;;;;;;8.98;5.30;;;11.10;99.90;;;;;;5028755;28;20131;-66
2022/12/20 12:25:03;;;;;;;6.40;3.90;;;11.30;99.90;;;;;;5028718;28;20033;-66
2022/12/20 12:27:28;;;;;;;10.68;5.07;;;10.80;99.90;;;;;;5032494;28;20029;-66
2022/12/20 12:29:57;;;;;;;11.45;5.53;;;11.60;99.90;;;;;;5034698;28;20152;-66
2022/12/20 12:32:59;;;;;;;9.57;5.00;;;10.80;99.90;;;;;;5024149;28;20714;-66
2022/12/20 12:36:07;;;;;;;10.20;5.38;;;11.20;99.90;;;;;;5022141;28;20560;-66
2022/12/20 12:38:58;;;;;;;9.73;4.80;;;11.90;99.90;;;;;;5029352;28;20048;-66
2022/12/20 12:42:18;;;;;;;9.07;4.88;;;12.00;99.90;;;;;;5027539;28;20041;-68
2022/12/20 12:44:55;;;;;;;8.75;4.68;;;11.80;99.90;;;;;;4975826;28;20103;-66
2022/12/20 12:47:33;;;;;;;8.50;5.03;;;12.10;99.90;;;;;;5033336;28;20494;-66
2022/12/20 12:50:01;;;;;;;6.90;4.30;;;11.80;99.90;;;;;;5035003;28;20038;-66
2022/12/20 12:52:38;;;;;;;8.63;5.10;;;11.00;99.90;;;;;;5031517;28;20517;-66
2022/12/20 12:55:34;;;;;;;11.90;7.20;;;10.90;99.90;;;;;;5034816;28;20045;-66
2022/12/20 12:58:32;;;;;;;9.07;5.88;;;12.20;99.90;;;;;;5032596;28;20045;-66
2022/12/20 13:01:08;;;;;;;9.32;4.93;;;11.30;99.90;;;;;;5026099;28;20045;-66
2022/12/20 13:03:52;;;;;;;;;;;11.30;99.90;;;;;;5030660;28;20403;-66
2022/12/20 13:06:29;;;;;;;8.82;5.28;;;12.30;99.90;;;;;;5016034;28;19929;-66
2022/12/20 13:08:55;;;;;;;13.60;6.05;;;10.60;99.90;;;;;;5034887;28;20129;-66
2022/12/20 13:11:31;;;;;;;7.78;5.38;;;12.30;99.90;;;;;;5032851;28;20132;-66
2022/12/20 13:14:24;;;;;;;11.52;6.25;;;12.30;99.90;;;;;;5034433;28;20132;-66
2022/12/20 13:16:59;;;;;;;12.00;6.25;;;12.20;99.90;;;;;;5031515;28;20517;-66
2022/12/20 13:19:24;;;;;;;15.20;5.97;;;12.30;99.90;;;;;;5032091;28;20045;-67